sensor_id;sensor_type;location;lat;lon;timestamp;pressure;altitude;pressure_sealevel;temperature;humidity
85735;BME280;76179;42.316;22.856;2024-03-08T00:00:50;94359.72;;;4.93;79.45
85735;BME280;76179;42.316;22.856;2024-03-08T00:03:16;94360.78;;;5.07;79.31
85735;BME280;76179;42.316;22.856;2024-03-08T00:05:42;94376.91;;;5.17;79.11
85735;BME280;76179;42.316;22.856;2024-03-08T00:08:09;94375.75;;;5.15;79.13
85735;BME280;76179;42.316;22.856;2024-03-08T00:10:35;94367.75;;;5.00;78.68
85735;BME280;76179;42.316;22.856;2024-03-08T00:13:00;94372.72;;;5.06;79.07
85735;BME280;76179;42.316;22.856;2024-03-08T00:15:26;94371.47;;;5.21;78.77
85735;BME280;76179;42.316;22.856;2024-03-08T00:17:54;94353.84;;;5.09;79.40
85735;BME280;76179;42.316;22.856;2024-03-08T00:20:20;94345.75;;;5.06;78.92
85735;BME280;76179;42.316;22.856;2024-03-08T00:22:45;94349.16;;;5.17;78.28
85735;BME280;76179;42.316;22.856;2024-03-08T00:25:11;94364.09;;;5.28;78.24
85735;BME280;76179;42.316;22.856;2024-03-08T00:27:40;94359.50;;;5.25;78.19
85735;BME280;76179;42.316;22.856;2024-03-08T00:30:07;94367.66;;;5.18;78.43
85735;BME280;76179;42.316;22.856;2024-03-08T00:32:33;94374.66;;;5.09;78.67
85735;BME280;76179;42.316;22.856;2024-03-08T00:34:58;94368.81;;;5.17;78.17
85735;BME280;76179;42.316;22.856;2024-03-08T00:37:24;94353.00;;;5.16;77.46
85735;BME280;76179;42.316;22.856;2024-03-08T00:39:52;94344.53;;;5.14;77.76
85735;BME280;76179;42.316;22.856;2024-03-08T00:42:19;94346.06;;;5.18;78.18
85735;BME280;76179;42.316;22.856;2024-03-08T00:44:44;94345.69;;;5.13;77.34
85735;BME280;76179;42.316;22.856;2024-03-08T00:47:12;94346.91;;;5.08;77.17
85735;BME280;76179;42.316;22.856;2024-03-08T00:49:38;94329.59;;;5.02;77.89
85735;BME280;76179;42.316;22.856;2024-03-08T00:52:06;94336.44;;;5.14;77.40
85735;BME280;76179;42.316;22.856;2024-03-08T00:54:32;94350.72;;;5.14;77.50
85735;BME280;76179;42.316;22.856;2024-03-08T00:56:58;94330.72;;;5.08;77.94
85735;BME280;76179;42.316;22.856;2024-03-08T00:59:26;94320.44;;;4.92;77.36
85735;BME280;76179;42.316;22.856;2024-03-08T01:01:51;94332.31;;;4.98;77.33
85735;BME280;76179;42.316;22.856;2024-03-08T01:04:17;94328.91;;;4.91;77.34
85735;BME280;76179;42.316;22.856;2024-03-08T01:06:44;94308.97;;;4.74;77.88
85735;BME280;76179;42.316;22.856;2024-03-08T01:09:15;94316.25;;;4.81;77.13
85735;BME280;76179;42.316;22.856;2024-03-08T01:11:42;94341.97;;;4.96;77.56
85735;BME280;76179;42.316;22.856;2024-03-08T01:14:13;94326.25;;;4.87;77.40
85735;BME280;76179;42.316;22.856;2024-03-08T01:16:39;94317.00;;;4.85;77.96
85735;BME280;76179;42.316;22.856;2024-03-08T01:19:04;94335.84;;;4.92;77.13
85735;BME280;76179;42.316;22.856;2024-03-08T01:21:30;94306.66;;;4.80;77.06
85735;BME280;76179;42.316;22.856;2024-03-08T01:23:57;94315.13;;;4.78;76.88
85735;BME280;76179;42.316;22.856;2024-03-08T01:26:23;94309.78;;;4.68;76.72
85735;BME280;76179;42.316;22.856;2024-03-08T01:28:49;94313.22;;;4.75;76.65
85735;BME280;76179;42.316;22.856;2024-03-08T01:31:15;94307.13;;;4.64;76.83
85735;BME280;76179;42.316;22.856;2024-03-08T01:33:41;94310.59;;;4.61;75.66
85735;BME280;76179;42.316;22.856;2024-03-08T01:36:07;94302.59;;;4.47;75.76
85735;BME280;76179;42.316;22.856;2024-03-08T01:38:32;94309.50;;;4.51;75.98
85735;BME280;76179;42.316;22.856;2024-03-08T01:40:59;94302.63;;;4.43;75.98
85735;BME280;76179;42.316;22.856;2024-03-08T01:43:28;94310.38;;;4.31;75.08
85735;BME280;76179;42.316;22.856;2024-03-08T01:45:55;94294.25;;;4.23;74.89
85735;BME280;76179;42.316;22.856;2024-03-08T01:48:23;94301.59;;;4.12;75.03
85735;BME280;76179;42.316;22.856;2024-03-08T01:50:50;94305.91;;;3.96;73.85
85735;BME280;76179;42.316;22.856;2024-03-08T01:53:17;94304.38;;;3.91;74.26
85735;BME280;76179;42.316;22.856;2024-03-08T01:55:45;94298.25;;;3.83;74.62
85735;BME280;76179;42.316;22.856;2024-03-08T01:58:12;94299.81;;;3.77;74.99
85735;BME280;76179;42.316;22.856;2024-03-08T02:00:42;94316.00;;;3.49;75.24
85735;BME280;76179;42.316;22.856;2024-03-08T02:03:09;94304.16;;;3.32;76.37
85735;BME280;76179;42.316;22.856;2024-03-08T02:05:34;94302.22;;;3.29;77.36
85735;BME280;76179;42.316;22.856;2024-03-08T02:08:01;94302.22;;;3.29;77.52
85735;BME280;76179;42.316;22.856;2024-03-08T02:10:28;94296.06;;;3.29;77.19
85735;BME280;76179;42.316;22.856;2024-03-08T02:12:53;94299.13;;;3.34;77.94
85735;BME280;76179;42.316;22.856;2024-03-08T02:15:19;94287.63;;;3.30;77.88
85735;BME280;76179;42.316;22.856;2024-03-08T02:17:45;94302.97;;;3.37;77.97
85735;BME280;76179;42.316;22.856;2024-03-08T02:20:10;94281.50;;;3.05;77.50
85735;BME280;76179;42.316;22.856;2024-03-08T02:22:38;94291.09;;;2.99;77.19
85735;BME280;76179;42.316;22.856;2024-03-08T02:25:04;94300.31;;;3.05;77.64
85735;BME280;76179;42.316;22.856;2024-03-08T02:27:31;94286.84;;;2.94;77.56
85735;BME280;76179;42.316;22.856;2024-03-08T02:29:57;94300.31;;;3.01;76.88
85735;BME280;76179;42.316;22.856;2024-03-08T02:32:23;94285.72;;;2.92;76.69
85735;BME280;76179;42.316;22.856;2024-03-08T02:34:48;94299.91;;;2.96;77.34
85735;BME280;76179;42.316;22.856;2024-03-08T02:37:15;94288.41;;;2.78;76.87
85735;BME280;76179;42.316;22.856;2024-03-08T02:39:40;94298.38;;;2.70;76.88
85735;BME280;76179;42.316;22.856;2024-03-08T02:42:06;94293.31;;;2.40;78.04
85735;BME280;76179;42.316;22.856;2024-03-08T02:44:32;94302.16;;;2.41;77.83
85735;BME280;76179;42.316;22.856;2024-03-08T02:46:58;94308.31;;;2.45;78.35
85735;BME280;76179;42.316;22.856;2024-03-08T02:49:25;94314.47;;;2.45;77.17
85735;BME280;76179;42.316;22.856;2024-03-08T02:51:52;94319.00;;;2.27;78.05
85735;BME280;76179;42.316;22.856;2024-03-08T02:54:17;94310.94;;;2.23;78.33
85735;BME280;76179;42.316;22.856;2024-03-08T02:56:44;94322.47;;;2.35;78.07
85735;BME280;76179;42.316;22.856;2024-03-08T02:59:12;94326.72;;;2.39;78.52
85735;BME280;76179;42.316;22.856;2024-03-08T03:01:37;94313.31;;;2.39;78.59
85735;BME280;76179;42.316;22.856;2024-03-08T03:04:03;94311.38;;;2.36;78.75
85735;BME280;76179;42.316;22.856;2024-03-08T03:06:29;94330.19;;;2.47;78.12
85735;BME280;76179;42.316;22.856;2024-03-08T03:08:54;94322.91;;;2.44;78.68
85735;BME280;76179;42.316;22.856;2024-03-08T03:11:20;94323.66;;;2.44;77.99
85735;BME280;76179;42.316;22.856;2024-03-08T03:13:45;94323.97;;;2.18;77.91
85735;BME280;76179;42.316;22.856;2024-03-08T03:16:17;94334.72;;;2.25;78.46
85735;BME280;76179;42.316;22.856;2024-03-08T03:18:44;94329.72;;;2.16;78.10
85735;BME280;76179;42.316;22.856;2024-03-08T03:21:09;94328.16;;;2.08;79.19
85735;BME280;76179;42.316;22.856;2024-03-08T03:23:34;94343.09;;;2.09;79.24
85735;BME280;76179;42.316;22.856;2024-03-08T03:26:00;94335.81;;;2.10;79.11
85735;BME280;76179;42.316;22.856;2024-03-08T03:28:27;94343.91;;;2.20;79.77
85735;BME280;76179;42.316;22.856;2024-03-08T03:30:53;94341.63;;;2.15;80.18
85735;BME280;76179;42.316;22.856;2024-03-08T03:33:18;94331.97;;;2.04;79.84
85735;BME280;76179;42.316;22.856;2024-03-08T03:35:44;94330.41;;;1.99;81.22
85735;BME280;76179;42.316;22.856;2024-03-08T03:38:10;94332.28;;;1.88;81.42
85735;BME280;76179;42.316;22.856;2024-03-08T03:40:36;94340.75;;;1.97;81.53
85735;BME280;76179;42.316;22.856;2024-03-08T03:43:02;94335.34;;;1.90;81.32
85735;BME280;76179;42.316;22.856;2024-03-08T03:45:29;94359.59;;;2.11;81.29
85735;BME280;76179;42.316;22.856;2024-03-08T03:47:54;94356.56;;;2.13;81.84
85735;BME280;76179;42.316;22.856;2024-03-08T03:50:20;94365.81;;;2.29;80.70
85735;BME280;76179;42.316;22.856;2024-03-08T03:52:47;94351.56;;;2.18;80.37
85735;BME280;76179;42.316;22.856;2024-03-08T03:55:13;94368.88;;;2.24;80.40
85735;BME280;76179;42.316;22.856;2024-03-08T03:57:40;94370.41;;;2.22;80.92
85735;BME280;76179;42.316;22.856;2024-03-08T04:00:06;94365.41;;;2.20;81.37
85735;BME280;76179;42.316;22.856;2024-03-08T04:02:38;94372.34;;;2.28;81.83
85735;BME280;76179;42.316;22.856;2024-03-08T04:05:05;94362.31;;;2.18;82.30
85735;BME280;76179;42.316;22.856;2024-03-08T04:07:31;94350.03;;;2.14;82.43
85735;BME280;76179;42.316;22.856;2024-03-08T04:09:56;94356.19;;;2.14;83.58
85735;BME280;76179;42.316;22.856;2024-03-08T04:12:22;94365.81;;;2.29;83.41
85735;BME280;76179;42.316;22.856;2024-03-08T04:14:48;94373.53;;;2.42;84.33
85735;BME280;76179;42.316;22.856;2024-03-08T04:17:14;94370.50;;;2.54;83.60
85735;BME280;76179;42.316;22.856;2024-03-08T04:19:39;94359.75;;;2.50;83.24
85735;BME280;76179;42.316;22.856;2024-03-08T04:22:05;94371.66;;;2.60;83.93
85735;BME280;76179;42.316;22.856;2024-03-08T04:24:33;94385.13;;;2.74;84.04
85735;BME280;76179;42.316;22.856;2024-03-08T04:26:58;94383.19;;;2.71;83.23
85735;BME280;76179;42.316;22.856;2024-03-08T04:29:24;94384.38;;;2.74;83.27
85735;BME280;76179;42.316;22.856;2024-03-08T04:31:49;94392.84;;;2.90;83.51
85735;BME280;76179;42.316;22.856;2024-03-08T04:34:22;94402.44;;;2.94;83.04
85735;BME280;76179;42.316;22.856;2024-03-08T04:36:48;94388.63;;;2.89;83.43
85735;BME280;76179;42.316;22.856;2024-03-08T04:39:14;94391.72;;;3.01;82.99
85735;BME280;76179;42.316;22.856;2024-03-08T04:41:41;94390.97;;;3.08;82.18
85735;BME280;76179;42.316;22.856;2024-03-08T04:44:10;94380.22;;;3.15;82.95
85735;BME280;76179;42.316;22.856;2024-03-08T04:46:35;94393.69;;;3.33;81.39
85735;BME280;76179;42.316;22.856;2024-03-08T04:49:01;94397.13;;;3.23;81.67
85735;BME280;76179;42.316;22.856;2024-03-08T04:51:26;94389.44;;;3.25;81.36
85735;BME280;76179;42.316;22.856;2024-03-08T04:53:52;94400.97;;;3.36;81.17
85735;BME280;76179;42.316;22.856;2024-03-08T04:56:17;94405.19;;;3.23;82.37
85735;BME280;76179;42.316;22.856;2024-03-08T04:58:45;94405.19;;;3.37;82.33
85735;BME280;76179;42.316;22.856;2024-03-08T05:01:14;94415.56;;;3.53;81.86
85735;BME280;76179;42.316;22.856;2024-03-08T05:03:39;94416.72;;;3.52;80.40
85735;BME280;76179;42.316;22.856;2024-03-08T05:06:05;94417.09;;;3.50;79.11
85735;BME280;76179;42.316;22.856;2024-03-08T05:08:30;94414.81;;;3.52;80.20
85735;BME280;76179;42.316;22.856;2024-03-08T05:10:56;94428.25;;;3.52;80.68
85735;BME280;76179;42.316;22.856;2024-03-08T05:13:21;94429.41;;;3.65;80.54
85735;BME280;76179;42.316;22.856;2024-03-08T05:15:49;94439.41;;;3.79;80.78
85735;BME280;76179;42.316;22.856;2024-03-08T05:18:15;94450.94;;;3.79;81.32
85735;BME280;76179;42.316;22.856;2024-03-08T05:20:41;94439.41;;;3.86;80.82
85735;BME280;76179;42.316;22.856;2024-03-08T05:23:07;94446.34;;;3.76;80.52
85735;BME280;76179;42.316;22.856;2024-03-08T05:25:33;94433.28;;;3.71;81.13
85735;BME280;76179;42.316;22.856;2024-03-08T05:27:58;94444.41;;;3.77;80.01
85735;BME280;76179;42.316;22.856;2024-03-08T05:30:24;94457.47;;;3.85;80.85
85735;BME280;76179;42.316;22.856;2024-03-08T05:32:49;94451.72;;;3.94;80.72
85735;BME280;76179;42.316;22.856;2024-03-08T05:35:15;94465.16;;;4.05;81.26
85735;BME280;76179;42.316;22.856;2024-03-08T05:37:41;94468.22;;;4.17;79.57
85735;BME280;76179;42.316;22.856;2024-03-08T05:40:08;94461.66;;;4.18;79.72
85735;BME280;76179;42.316;22.856;2024-03-08T05:42:34;94462.03;;;4.24;78.60
85735;BME280;76179;42.316;22.856;2024-03-08T05:45:00;94465.50;;;4.32;78.60
85735;BME280;76179;42.316;22.856;2024-03-08T05:47:25;94471.59;;;4.43;78.39
85735;BME280;76179;42.316;22.856;2024-03-08T05:49:51;94469.31;;;4.38;76.81
85735;BME280;76179;42.316;22.856;2024-03-08T05:52:18;94482.03;;;4.30;78.07
85735;BME280;76179;42.316;22.856;2024-03-08T05:54:44;94482.81;;;4.27;78.79
85735;BME280;76179;42.316;22.856;2024-03-08T05:57:11;94483.94;;;4.37;79.55
85735;BME280;76179;42.316;22.856;2024-03-08T05:59:36;94489.34;;;4.37;79.43
85735;BME280;76179;42.316;22.856;2024-03-08T06:02:01;94490.09;;;4.44;78.58
85735;BME280;76179;42.316;22.856;2024-03-08T06:04:27;94480.84;;;4.45;78.52
85735;BME280;76179;42.316;22.856;2024-03-08T06:06:54;94497.38;;;4.58;78.54
85735;BME280;76179;42.316;22.856;2024-03-08T06:09:22;94501.59;;;4.62;79.12
85735;BME280;76179;42.316;22.856;2024-03-08T06:11:48;94503.91;;;4.64;78.53
85735;BME280;76179;42.316;22.856;2024-03-08T06:14:14;94493.88;;;4.72;78.93
85735;BME280;76179;42.316;22.856;2024-03-08T06:16:44;94499.66;;;4.67;78.53
85735;BME280;76179;42.316;22.856;2024-03-08T06:19:09;94500.47;;;4.56;77.75
85735;BME280;76179;42.316;22.856;2024-03-08T06:21:35;94498.94;;;4.55;77.66
85735;BME280;76179;42.316;22.856;2024-03-08T06:24:00;94492.75;;;4.51;78.21
85735;BME280;76179;42.316;22.856;2024-03-08T06:26:26;94491.25;;;4.43;77.57
85735;BME280;76179;42.316;22.856;2024-03-08T06:28:53;94489.69;;;4.42;77.12
85735;BME280;76179;42.316;22.856;2024-03-08T06:31:19;94489.31;;;4.44;75.07
85735;BME280;76179;42.316;22.856;2024-03-08T06:33:45;94488.16;;;4.45;75.06
85735;BME280;76179;42.316;22.856;2024-03-08T06:36:10;94495.06;;;4.56;75.44
85735;BME280;76179;42.316;22.856;2024-03-08T06:38:37;94498.53;;;4.60;76.04
85735;BME280;76179;42.316;22.856;2024-03-08T06:41:08;94494.25;;;4.74;75.81
85735;BME280;76179;42.316;22.856;2024-03-08T06:43:33;94506.53;;;4.82;75.74
85735;BME280;76179;42.316;22.856;2024-03-08T06:45:59;94500.41;;;4.67;77.90
85735;BME280;76179;42.316;22.856;2024-03-08T06:48:25;94511.56;;;4.73;79.36
85735;BME280;76179;42.316;22.856;2024-03-08T06:50:50;94498.47;;;4.75;79.34
85735;BME280;76179;42.316;22.856;2024-03-08T06:53:16;94513.09;;;4.81;79.84
85735;BME280;76179;42.316;22.856;2024-03-08T06:55:44;94504.97;;;4.88;80.20
85735;BME280;76179;42.316;22.856;2024-03-08T06:58:09;94503.81;;;4.92;80.03
85735;BME280;76179;42.316;22.856;2024-03-08T07:00:36;94511.13;;;4.92;79.90
85735;BME280;76179;42.316;22.856;2024-03-08T07:03:01;94515.81;;;4.74;80.72
85735;BME280;76179;42.316;22.856;2024-03-08T07:05:30;94516.22;;;4.69;81.10
85735;BME280;76179;42.316;22.856;2024-03-08T07:07:55;94522.00;;;4.63;81.88
85735;BME280;76179;42.316;22.856;2024-03-08T07:10:24;94517.72;;;4.84;81.56
85735;BME280;76179;42.316;22.856;2024-03-08T07:12:52;94520.34;;;4.98;81.22
85735;BME280;76179;42.316;22.856;2024-03-08T07:15:20;94518.78;;;5.04;80.30
85735;BME280;76179;42.316;22.856;2024-03-08T07:17:46;94514.88;;;5.12;80.50
85735;BME280;76179;42.316;22.856;2024-03-08T07:20:15;94519.13;;;5.13;80.46
85735;BME280;76179;42.316;22.856;2024-03-08T07:22:44;94524.88;;;5.26;79.85
85735;BME280;76179;42.316;22.856;2024-03-08T07:25:12;94517.13;;;5.28;79.78
85735;BME280;76179;42.316;22.856;2024-03-08T07:27:48;94515.97;;;5.32;79.17
85735;BME280;76179;42.316;22.856;2024-03-08T07:30:14;94517.53;;;5.23;79.68
85735;BME280;76179;42.316;22.856;2024-03-08T07:32:59;94525.63;;;5.26;80.53
85735;BME280;76179;42.316;22.856;2024-03-08T07:35:25;94519.00;;;5.34;79.61
85735;BME280;76179;42.316;22.856;2024-03-08T07:37:51;94523.22;;;5.46;79.72
85735;BME280;76179;42.316;22.856;2024-03-08T07:40:16;94523.47;;;5.66;78.84
85735;BME280;76179;42.316;22.856;2024-03-08T07:42:43;94513.84;;;5.65;78.88
85735;BME280;76179;42.316;22.856;2024-03-08T07:45:09;94518.78;;;5.77;79.50
85735;BME280;76179;42.316;22.856;2024-03-08T07:47:34;94520.94;;;6.03;79.32
85735;BME280;76179;42.316;22.856;2024-03-08T07:50:01;94527.69;;;6.26;78.66
85735;BME280;76179;42.316;22.856;2024-03-08T07:52:27;94529.69;;;6.18;77.26
85735;BME280;76179;42.316;22.856;2024-03-08T07:54:52;94532.78;;;6.16;76.37
85735;BME280;76179;42.316;22.856;2024-03-08T07:57:18;94536.19;;;6.24;73.37
85735;BME280;76179;42.316;22.856;2024-03-08T07:59:44;94527.25;;;6.31;72.54
85735;BME280;76179;42.316;22.856;2024-03-08T08:02:09;94538.81;;;6.35;72.47
85735;BME280;76179;42.316;22.856;2024-03-08T08:04:35;94537.91;;;6.48;71.30
85735;BME280;76179;42.316;22.856;2024-03-08T08:07:01;94534.75;;;6.57;69.78
85735;BME280;76179;42.316;22.856;2024-03-08T08:09:26;94530.88;;;6.58;69.99
85735;BME280;76179;42.316;22.856;2024-03-08T08:12:02;94532.63;;;6.75;70.53
85735;BME280;76179;42.316;22.856;2024-03-08T08:14:28;94532.03;;;6.94;70.21
85735;BME280;76179;42.316;22.856;2024-03-08T08:16:54;94542.94;;;6.87;69.49
85735;BME280;76179;42.316;22.856;2024-03-08T08:19:22;94536.06;;;6.79;67.92
85735;BME280;76179;42.316;22.856;2024-03-08T08:21:47;94543.38;;;6.82;69.01
85735;BME280;76179;42.316;22.856;2024-03-08T08:24:13;94536.00;;;6.86;68.34
85735;BME280;76179;42.316;22.856;2024-03-08T08:26:38;94535.16;;;6.89;69.39
85735;BME280;76179;42.316;22.856;2024-03-08T08:29:03;94528.56;;;6.94;67.57
85735;BME280;76179;42.316;22.856;2024-03-08T08:31:29;94538.16;;;6.99;68.17
85735;BME280;76179;42.316;22.856;2024-03-08T08:33:57;94531.13;;;7.05;69.02
85735;BME280;76179;42.316;22.856;2024-03-08T08:36:25;94530.22;;;7.18;67.53
85735;BME280;76179;42.316;22.856;2024-03-08T08:38:50;94539.09;;;7.19;67.15
85735;BME280;76179;42.316;22.856;2024-03-08T08:41:19;94527.72;;;7.31;67.98
85735;BME280;76179;42.316;22.856;2024-03-08T08:43:46;94534.81;;;7.52;67.38
85735;BME280;76179;42.316;22.856;2024-03-08T08:46:11;94522.66;;;7.63;66.60
85735;BME280;76179;42.316;22.856;2024-03-08T08:49:11;94501.66;;;7.71;64.12
85735;BME280;76179;42.316;22.856;2024-03-08T08:51:40;94512.53;;;7.94;65.06
85735;BME280;76179;42.316;22.856;2024-03-08T08:54:12;94518.22;;;8.03;65.15
85735;BME280;76179;42.316;22.856;2024-03-08T08:56:42;94520.22;;;8.23;63.25
85735;BME280;76179;42.316;22.856;2024-03-08T08:59:09;94515.22;;;8.44;63.36
85735;BME280;76179;42.316;22.856;2024-03-08T09:01:34;94502.22;;;8.59;62.15
85735;BME280;76179;42.316;22.856;2024-03-08T09:04:03;94521.63;;;8.77;61.07
85735;BME280;76179;42.316;22.856;2024-03-08T09:06:57;94526.66;;;8.79;60.54
85735;BME280;76179;42.316;22.856;2024-03-08T09:09:45;94501.88;;;8.77;59.92
85735;BME280;76179;42.316;22.856;2024-03-08T09:12:11;94504.03;;;8.85;59.03
85735;BME280;76179;42.316;22.856;2024-03-08T09:15:11;94497.25;;;8.54;60.56
85735;BME280;76179;42.316;22.856;2024-03-08T09:17:39;94495.78;;;8.49;60.69
85735;BME280;76179;42.316;22.856;2024-03-08T09:20:08;94506.16;;;8.55;58.65
85735;BME280;76179;42.316;22.856;2024-03-08T09:22:38;94510.41;;;8.75;60.24
85735;BME280;76179;42.316;22.856;2024-03-08T09:25:05;94501.31;;;8.85;58.17
85735;BME280;76179;42.316;22.856;2024-03-08T09:27:30;94503.50;;;8.94;56.98
85735;BME280;76179;42.316;22.856;2024-03-08T09:29:56;94511.09;;;9.03;57.79
85735;BME280;76179;42.316;22.856;2024-03-08T09:32:21;94510.69;;;9.04;57.32
85735;BME280;76179;42.316;22.856;2024-03-08T09:34:50;94511.56;;;9.17;57.76
85735;BME280;76179;42.316;22.856;2024-03-08T09:37:21;94485.63;;;8.97;56.77
85735;BME280;76179;42.316;22.856;2024-03-08T09:39:47;94514.69;;;9.16;56.78
85735;BME280;76179;42.316;22.856;2024-03-08T09:42:15;94510.66;;;9.24;56.41
85735;BME280;76179;42.316;22.856;2024-03-08T09:44:46;94511.53;;;9.37;53.82
85735;BME280;76179;42.316;22.856;2024-03-08T09:47:15;94523.16;;;9.57;53.37
85735;BME280;76179;42.316;22.856;2024-03-08T09:49:41;94522.31;;;9.60;54.49
85735;BME280;76179;42.316;22.856;2024-03-08T09:52:08;94506.47;;;9.75;55.62
85735;BME280;76179;42.316;22.856;2024-03-08T09:54:35;94522.22;;;10.00;53.62
85735;BME280;76179;42.316;22.856;2024-03-08T09:57:00;94516.75;;;10.20;50.97
85735;BME280;76179;42.316;22.856;2024-03-08T09:59:29;94512.84;;;10.37;50.36
85735;BME280;76179;42.316;22.856;2024-03-08T10:02:01;94513.50;;;10.57;52.36
85735;BME280;76179;42.316;22.856;2024-03-08T10:04:29;94508.88;;;10.70;51.84
85735;BME280;76179;42.316;22.856;2024-03-08T10:06:57;94510.19;;;10.50;49.45
85735;BME280;76179;42.316;22.856;2024-03-08T10:09:24;94500.47;;;10.65;51.75
85735;BME280;76179;42.316;22.856;2024-03-08T10:12:01;94505.66;;;10.75;51.51
85735;BME280;76179;42.316;22.856;2024-03-08T10:14:27;94504.72;;;10.66;50.61
85735;BME280;76179;42.316;22.856;2024-03-08T10:16:52;94501.69;;;10.76;50.36
85735;BME280;76179;42.316;22.856;2024-03-08T10:19:18;94499.44;;;10.75;51.92
85735;BME280;76179;42.316;22.856;2024-03-08T10:21:48;94501.03;;;10.72;49.53
85735;BME280;76179;42.316;22.856;2024-03-08T10:24:14;94496.53;;;10.82;48.83
85735;BME280;76179;42.316;22.856;2024-03-08T10:26:39;94501.69;;;10.76;49.79
85735;BME280;76179;42.316;22.856;2024-03-08T10:29:05;94499.56;;;10.84;49.67
85735;BME280;76179;42.316;22.856;2024-03-08T10:31:33;94493.38;;;10.84;49.19
85735;BME280;76179;42.316;22.856;2024-03-08T10:33:58;94489.53;;;10.20;51.66
85735;BME280;76179;42.316;22.856;2024-03-08T10:36:23;94488.03;;;9.99;52.21
85735;BME280;76179;42.316;22.856;2024-03-08T10:38:51;94493.94;;;9.97;53.63
85735;BME280;76179;42.316;22.856;2024-03-08T10:41:18;94496.13;;;10.02;51.08
85735;BME280;76179;42.316;22.856;2024-03-08T10:49:08;94480.75;;;9.96;52.08
85735;BME280;76179;42.316;22.856;2024-03-08T10:51:38;94485.66;;;9.85;50.36
85735;BME280;76179;42.316;22.856;2024-03-08T10:54:07;94483.53;;;9.92;51.88
85735;BME280;76179;42.316;22.856;2024-03-08T10:56:34;94486.72;;;10.23;52.14
85735;BME280;76179;42.316;22.856;2024-03-08T10:59:03;94474.31;;;10.38;49.43
85735;BME280;76179;42.316;22.856;2024-03-08T11:01:30;94469.47;;;10.30;51.38
85735;BME280;76179;42.316;22.856;2024-03-08T11:03:56;94477.38;;;10.24;52.47
85735;BME280;76179;42.316;22.856;2024-03-08T11:06:30;94469.00;;;9.99;51.30
85735;BME280;76179;42.316;22.856;2024-03-08T11:08:55;94470.84;;;10.22;49.21
85735;BME280;76179;42.316;22.856;2024-03-08T11:11:31;94462.34;;;10.36;51.30
85735;BME280;76179;42.316;22.856;2024-03-08T11:13:58;94460.44;;;10.49;50.78
85735;BME280;76179;42.316;22.856;2024-03-08T11:18:55;94448.31;;;10.66;48.02
85735;BME280;76179;42.316;22.856;2024-03-08T11:21:24;94456.25;;;10.90;48.33
85735;BME280;76179;42.316;22.856;2024-03-08T11:24:12;94434.63;;;11.11;46.76
85735;BME280;76179;42.316;22.856;2024-03-08T11:26:42;94438.38;;;11.43;47.14
85735;BME280;76179;42.316;22.856;2024-03-08T11:34:31;94429.75;;;11.19;44.96
85735;BME280;76179;42.316;22.856;2024-03-08T11:36:58;94422.84;;;11.02;46.13
85735;BME280;76179;42.316;22.856;2024-03-08T11:39:24;94437.56;;;11.17;46.45
85735;BME280;76179;42.316;22.856;2024-03-08T11:41:50;94434.22;;;11.26;44.84
85735;BME280;76179;42.316;22.856;2024-03-08T11:44:16;94433.44;;;11.25;45.61
85735;BME280;76179;42.316;22.856;2024-03-08T11:46:42;94431.19;;;11.49;45.71
85735;BME280;76179;42.316;22.856;2024-03-08T11:49:12;94421.59;;;11.70;46.02
85735;BME280;76179;42.316;22.856;2024-03-08T11:51:38;94431.75;;;11.56;44.66
85735;BME280;76179;42.316;22.856;2024-03-08T11:54:03;94439.78;;;11.47;42.79
85735;BME280;76179;42.316;22.856;2024-03-08T11:56:29;94432.38;;;11.35;42.47
85735;BME280;76179;42.316;22.856;2024-03-08T11:58:56;94429.44;;;11.30;45.16
85735;BME280;76179;42.316;22.856;2024-03-08T12:01:22;94429.88;;;11.28;44.75
85735;BME280;76179;42.316;22.856;2024-03-08T12:03:58;94425.22;;;11.00;44.38
85735;BME280;76179;42.316;22.856;2024-03-08T12:06:25;94417.72;;;10.91;46.22
85735;BME280;76179;42.316;22.856;2024-03-08T12:08:51;94425.75;;;10.95;45.84
85735;BME280;76179;42.316;22.856;2024-03-08T12:11:22;94423.38;;;10.97;46.02
85735;BME280;76179;42.316;22.856;2024-03-08T12:13:49;94416.94;;;10.91;44.90
85735;BME280;76179;42.316;22.856;2024-03-08T12:16:17;94428.13;;;10.93;46.95
85735;BME280;76179;42.316;22.856;2024-03-08T12:18:51;94424.09;;;10.85;46.95
85735;BME280;76179;42.316;22.856;2024-03-08T12:21:18;94420.09;;;10.89;46.05
85735;BME280;76179;42.316;22.856;2024-03-08T12:23:46;94427.44;;;11.05;46.03
85735;BME280;76179;42.316;22.856;2024-03-08T12:26:24;94410.88;;;11.25;45.27
85735;BME280;76179;42.316;22.856;2024-03-08T12:28:52;94415.69;;;11.33;44.20
85735;BME280;76179;42.316;22.856;2024-03-08T12:31:18;94413.66;;;11.37;45.91
85735;BME280;76179;42.316;22.856;2024-03-08T12:36:15;94415.91;;;11.26;43.51
85735;BME280;76179;42.316;22.856;2024-03-08T12:38:43;94411.44;;;11.32;43.74
85735;BME280;76179;42.316;22.856;2024-03-08T12:41:09;94409.16;;;11.31;43.83
85735;BME280;76179;42.316;22.856;2024-03-08T12:43:34;94411.44;;;11.32;43.31
85735;BME280;76179;42.316;22.856;2024-03-08T12:45:59;94402.41;;;11.48;43.98
85735;BME280;76179;42.316;22.856;2024-03-08T12:48:25;94403.84;;;11.52;43.87
85735;BME280;76179;42.316;22.856;2024-03-08T12:50:50;94407.19;;;11.56;44.68
85735;BME280;76179;42.316;22.856;2024-03-08T12:53:17;94398.59;;;11.58;43.08
85735;BME280;76179;42.316;22.856;2024-03-08T12:55:43;94394.25;;;11.61;44.43
85735;BME280;76179;42.316;22.856;2024-03-08T12:58:09;94402.63;;;11.53;41.49
85735;BME280;76179;42.316;22.856;2024-03-08T13:00:34;94411.91;;;11.43;41.46
85735;BME280;76179;42.316;22.856;2024-03-08T13:03:02;94403.16;;;11.48;43.41
85735;BME280;76179;42.316;22.856;2024-03-08T13:05:28;94400.09;;;11.46;42.73
85735;BME280;76179;42.316;22.856;2024-03-08T13:07:53;94408.44;;;11.81;41.16
85735;BME280;76179;42.316;22.856;2024-03-08T13:10:20;94405.34;;;12.04;38.83
85735;BME280;76179;42.316;22.856;2024-03-08T13:12:45;94406.63;;;12.47;39.07